createdAt,value
2019-05-09T00:01:57.050Z,55.80
2019-05-09T00:04:18.464Z,55.90
2019-05-09T00:06:40.080Z,56.00
2019-05-09T00:09:03.582Z,56.10
2019-05-09T00:11:24.819Z,56.30
2019-05-09T00:13:46.206Z,56.20
2019-05-09T00:16:08.012Z,56.30
2019-05-09T00:18:29.499Z,56.30
2019-05-09T00:20:58.939Z,56.20
2019-05-09T00:23:20.444Z,56.10
2019-05-09T00:25:43.331Z,55.80
2019-05-09T00:28:05.766Z,56.10
2019-05-09T00:30:46.170Z,56.30
2019-05-09T00:33:07.897Z,56.30
2019-05-09T00:35:31.081Z,56.30
2019-05-09T00:37:54.381Z,56.10
2019-05-09T00:40:15.910Z,56.20
2019-05-09T00:42:37.398Z,56.00
2019-05-09T00:45:01.231Z,55.90
2019-05-09T00:47:27.776Z,55.80
2019-05-09T00:49:49.299Z,55.70
2019-05-09T00:52:10.917Z,55.80
2019-05-09T00:54:33.502Z,55.80
2019-05-09T00:56:55.014Z,55.70
2019-05-09T00:59:16.607Z,56.10
2019-05-09T01:01:38.775Z,55.60
2019-05-09T01:04:00.066Z,55.50
2019-05-09T01:06:23.627Z,55.80
2019-05-09T01:08:44.588Z,55.60
2019-05-09T01:11:12.430Z,55.60
2019-05-09T01:13:29.280Z,55.50
2019-05-09T01:15:50.607Z,56.10
2019-05-09T01:18:13.262Z,57.10
2019-05-09T01:20:35.180Z,56.70
2019-05-09T01:22:56.677Z,56.70
2019-05-09T01:25:18.058Z,57.00
2019-05-09T01:27:39.571Z,56.90
2019-05-09T01:30:01.086Z,57.00
2019-05-09T01:32:24.458Z,57.70
2019-05-09T01:34:46.258Z,57.90
2019-05-09T01:37:09.510Z,58.50
2019-05-09T01:39:33.659Z,58.90
2019-05-09T01:41:55.287Z,59.10
2019-05-09T01:44:16.610Z,59.20
2019-05-09T01:46:38.227Z,59.90
2019-05-09T01:48:59.514Z,60.90
2019-05-09T01:51:23.158Z,61.10
2019-05-09T01:53:46.394Z,61.10
2019-05-09T01:56:07.725Z,62.00
2019-05-09T01:58:30.933Z,62.50
2019-05-09T02:00:54.038Z,63.50
2019-05-09T02:03:15.638Z,63.50
2019-05-09T02:05:37.253Z,64.00
2019-05-09T02:07:58.682Z,64.00
2019-05-09T02:10:19.972Z,64.00
2019-05-09T02:12:43.023Z,64.50
2019-05-09T02:15:13.686Z,65.00
2019-05-09T02:17:55.825Z,65.50
2019-05-09T02:20:06.636Z,65.50
2019-05-09T02:22:35.432Z,65.80
2019-05-09T02:24:57.134Z,66.30
2019-05-09T02:27:18.843Z,66.90
2019-05-09T02:29:40.525Z,66.90
2019-05-09T02:32:04.569Z,67.70
2019-05-09T02:34:27.032Z,68.20
2019-05-09T02:36:49.566Z,68.40
2019-05-09T02:39:11.289Z,68.30
2019-05-09T02:41:32.893Z,67.90
2019-05-09T02:43:54.818Z,69.00
2019-05-09T02:46:19.038Z,68.80
2019-05-09T02:48:40.951Z,69.60
2019-05-09T02:51:02.279Z,70.60
2019-05-09T02:53:23.554Z,71.20
2019-05-09T02:55:45.148Z,71.50
2019-05-09T02:58:08.470Z,72.30
2019-05-09T03:00:43.899Z,72.80
2019-05-09T03:03:13.309Z,72.50
2019-05-09T03:05:34.719Z,73.00
2019-05-09T03:07:58.271Z,72.80
2019-05-09T03:10:21.215Z,73.30
2019-05-09T03:12:42.802Z,73.10
2019-05-09T03:15:05.307Z,73.90
2019-05-09T03:17:28.090Z,74.30
2019-05-09T03:19:49.928Z,74.50
2019-05-09T03:22:13.145Z,74.70
2019-05-09T03:24:34.464Z,75.90
2019-05-09T03:26:59.533Z,75.50
2019-05-09T03:29:34.917Z,75.90
2019-05-09T03:32:00.027Z,75.40
2019-05-09T03:34:20.266Z,76.10
2019-05-09T03:36:41.701Z,75.50
2019-05-09T03:39:08.042Z,75.50
2019-05-09T03:41:31.505Z,75.40
2019-05-09T03:43:53.010Z,75.60
2019-05-09T03:46:18.069Z,76.20
2019-05-09T03:48:54.910Z,76.60
2019-05-09T03:51:18.375Z,77.40
2019-05-09T03:53:39.771Z,78.50
2019-05-09T03:56:03.094Z,78.40
2019-05-09T03:58:24.866Z,78.70
2019-05-09T04:00:47.948Z,79.00
2019-05-09T04:03:09.693Z,78.70
2019-05-09T04:05:31.286Z,78.30
2019-05-09T04:07:52.622Z,78.10
2019-05-09T04:10:14.105Z,78.70
2019-05-09T04:12:37.512Z,79.00
2019-05-09T04:15:00.462Z,79.00
2019-05-09T04:17:23.750Z,79.10
2019-05-09T04:19:47.728Z,79.70
2019-05-09T04:22:08.766Z,79.90
2019-05-09T04:24:30.522Z,79.30
2019-05-09T04:26:53.714Z,79.20
2019-05-09T04:29:15.265Z,79.50
2019-05-09T04:31:38.408Z,79.80
2019-05-09T04:34:00.146Z,79.80
2019-05-09T04:36:23.393Z,80.30
2019-05-09T04:38:47.145Z,79.60
2019-05-09T04:41:08.587Z,79.40
2019-05-09T04:43:35.765Z,79.80
2019-05-09T04:45:57.949Z,79.40
2019-05-09T04:48:32.236Z,79.20
2019-05-09T04:50:56.537Z,79.90
2019-05-09T04:53:18.318Z,80.40
2019-05-09T04:55:40.439Z,79.80
2019-05-09T04:58:02.078Z,79.80
2019-05-09T05:00:31.059Z,80.40
2019-05-09T05:02:53.837Z,79.00
2019-05-09T05:05:15.196Z,78.70
2019-05-09T05:07:37.624Z,78.70
2019-05-09T05:09:59.383Z,78.70
2019-05-09T05:12:20.930Z,79.00
2019-05-09T05:14:42.226Z,78.90
2019-05-09T05:17:08.454Z,78.90
2019-05-09T05:19:28.539Z,78.60
2019-05-09T05:21:50.651Z,79.00
2019-05-09T05:24:14.837Z,79.40
2019-05-09T05:26:38.068Z,78.60
2019-05-09T05:28:59.326Z,78.40
2019-05-09T05:31:20.825Z,78.70
2019-05-09T05:33:53.869Z,78.30
2019-05-09T05:36:18.106Z,78.20
2019-05-09T05:38:39.605Z,77.40
2019-05-09T05:41:02.913Z,77.40
2019-05-09T05:43:37.887Z,78.00
2019-05-09T05:45:49.433Z,78.40
2019-05-09T05:48:17.483Z,78.40
2019-05-09T05:50:39.047Z,78.70
2019-05-09T05:53:00.734Z,78.50
2019-05-09T05:55:22.385Z,78.40
2019-05-09T05:57:43.945Z,77.10
2019-05-09T06:00:07.824Z,78.30
2019-05-09T06:02:29.690Z,78.40
2019-05-09T06:04:51.220Z,76.60
2019-05-09T06:07:12.674Z,76.50
2019-05-09T06:09:34.178Z,76.50
2019-05-09T06:11:57.764Z,77.30
2019-05-09T06:14:19.153Z,77.40
2019-05-09T06:16:40.561Z,77.70
2019-05-09T06:19:02.020Z,78.00
2019-05-09T06:21:23.489Z,78.40
2019-05-09T06:23:44.914Z,78.10
2019-05-09T06:26:09.886Z,78.00
2019-05-09T06:28:29.834Z,78.40
2019-05-09T06:30:51.751Z,78.50
2019-05-09T06:33:13.034Z,78.40
2019-05-09T06:35:34.456Z,77.80
2019-05-09T06:37:58.435Z,77.30
2019-05-09T06:40:21.462Z,77.10
2019-05-09T06:42:43.226Z,77.30
2019-05-09T06:45:07.707Z,77.10
2019-05-09T06:47:31.292Z,77.50
2019-05-09T06:49:57.281Z,77.60
2019-05-09T06:52:18.397Z,77.80
2019-05-09T06:54:41.644Z,78.10
2019-05-09T06:57:03.398Z,77.90
2019-05-09T06:59:24.953Z,77.70
2019-05-09T07:01:50.878Z,77.70
2019-05-09T07:04:23.675Z,78.30
2019-05-09T07:07:07.771Z,78.40
2019-05-09T07:09:30.455Z,78.10
2019-05-09T07:11:51.732Z,77.80
2019-05-09T07:14:33.474Z,78.30
2019-05-09T07:16:53.471Z,77.70
2019-05-09T07:19:16.891Z,77.80
2019-05-09T07:21:57.967Z,77.40
2019-05-09T07:24:20.772Z,77.90
2019-05-09T07:26:42.262Z,78.00
2019-05-09T07:29:03.889Z,78.00
2019-05-09T07:31:32.862Z,78.10
2019-05-09T07:33:59.159Z,77.70
2019-05-09T07:36:20.833Z,77.60
2019-05-09T07:38:42.453Z,77.30
2019-05-09T07:41:03.726Z,77.40
2019-05-09T07:43:28.049Z,77.30
2019-05-09T07:46:08.506Z,77.10
2019-05-09T07:48:29.203Z,77.10
2019-05-09T07:50:50.624Z,77.20
2019-05-09T07:53:12.713Z,77.30
2019-05-09T07:55:34.166Z,77.90
2019-05-09T07:57:56.264Z,77.80
2019-05-09T08:00:33.512Z,77.50
2019-05-09T08:02:55.135Z,77.20
2019-05-09T08:05:27.867Z,77.90
2019-05-09T08:07:49.153Z,77.80
2019-05-09T08:10:11.329Z,77.50
2019-05-09T08:12:33.071Z,77.00
2019-05-09T08:15:07.422Z,77.60
2019-05-09T08:17:18.183Z,77.30
2019-05-09T08:19:39.807Z,77.20
2019-05-09T08:22:01.315Z,77.50
2019-05-09T08:24:22.946Z,77.80
2019-05-09T08:26:44.250Z,77.80
2019-05-09T08:29:09.092Z,77.60
2019-05-09T08:31:29.257Z,77.40
2019-05-09T08:33:50.555Z,76.70
2019-05-09T08:36:12.163Z,77.00
2019-05-09T08:38:34.108Z,77.10
2019-05-09T08:41:12.647Z,76.50
2019-05-09T08:43:37.607Z,76.00
2019-05-09T08:45:58.832Z,76.10
2019-05-09T08:48:20.434Z,76.10
2019-05-09T08:50:43.643Z,76.20
2019-05-09T08:53:05.113Z,76.10
2019-05-09T08:55:27.856Z,76.20
2019-05-09T08:57:49.903Z,76.60
2019-05-09T09:00:12.210Z,76.20
2019-05-09T09:02:33.606Z,76.20
2019-05-09T09:04:57.983Z,76.20
2019-05-09T09:07:19.052Z,76.60
2019-05-09T09:09:40.656Z,76.40
2019-05-09T09:12:01.993Z,75.80
2019-05-09T09:14:23.473Z,77.40
2019-05-09T09:16:44.966Z,78.10
2019-05-09T09:19:08.716Z,78.20
2019-05-09T09:21:29.929Z,78.30
2019-05-09T09:23:51.879Z,78.60
2019-05-09T09:26:13.558Z,79.40
2019-05-09T09:28:34.905Z,79.60
2019-05-09T09:30:58.961Z,80.50
2019-05-09T09:33:19.630Z,80.60
2019-05-09T09:35:41.251Z,80.60
2019-05-09T09:38:02.723Z,80.80
2019-05-09T09:40:24.269Z,81.90
2019-05-09T09:42:45.662Z,82.50
2019-05-09T09:45:07.790Z,82.60
2019-05-09T09:47:29.972Z,82.40
2019-05-09T09:49:55.223Z,82.00
2019-05-09T09:52:18.801Z,81.80
2019-05-09T09:54:40.824Z,82.00
2019-05-09T09:57:02.609Z,83.30
2019-05-09T09:59:41.202Z,83.60
2019-05-09T10:02:04.772Z,83.90
2019-05-09T10:04:28.253Z,84.20
2019-05-09T10:06:52.821Z,84.20
2019-05-09T10:09:12.766Z,84.50
2019-05-09T10:11:34.437Z,85.10
2019-05-09T10:13:58.302Z,85.20
2019-05-09T10:16:29.149Z,85.50
2019-05-09T10:18:49.360Z,84.90
2019-05-09T10:21:18.579Z,85.00
2019-05-09T10:23:40.605Z,85.10
2019-05-09T10:26:02.135Z,84.90
2019-05-09T10:28:23.555Z,84.70
2019-05-09T10:30:44.866Z,84.80
2019-05-09T10:33:08.919Z,84.60
2019-05-09T10:35:29.662Z,84.70
2019-05-09T10:37:53.554Z,84.80
2019-05-09T10:40:20.446Z,85.00
2019-05-09T10:42:48.296Z,85.30
2019-05-09T10:45:28.319Z,85.60
2019-05-09T10:47:49.806Z,85.50
2019-05-09T10:50:12.359Z,85.20
2019-05-09T10:52:33.892Z,85.00
2019-05-09T10:54:55.176Z,85.60
2019-05-09T10:57:16.682Z,85.90
2019-05-09T10:59:38.099Z,85.40
2019-05-09T11:01:59.495Z,85.50
2019-05-09T11:04:21.044Z,85.60
2019-05-09T11:06:42.649Z,86.00
2019-05-09T11:09:08.584Z,86.00
2019-05-09T11:11:29.894Z,85.80
2019-05-09T11:13:51.668Z,86.20
2019-05-09T11:16:13.062Z,85.90
2019-05-09T11:18:34.370Z,86.40
2019-05-09T11:20:58.074Z,86.60
2019-05-09T11:23:19.586Z,86.40
2019-05-09T11:25:42.846Z,86.40
2019-05-09T11:28:11.221Z,87.10
2019-05-09T11:30:28.206Z,87.20
2019-05-09T11:32:49.743Z,87.20
2019-05-09T11:35:11.735Z,87.50
2019-05-09T11:37:33.306Z,87.40
2019-05-09T11:39:54.928Z,87.60
2019-05-09T11:42:17.817Z,87.30
2019-05-09T11:44:39.534Z,86.90
2019-05-09T11:47:00.821Z,86.50
2019-05-09T11:49:22.341Z,85.90
2019-05-09T11:51:44.008Z,85.60
2019-05-09T11:54:05.311Z,85.30
2019-05-09T11:56:26.721Z,85.80
2019-05-09T11:58:48.504Z,85.70
2019-05-09T12:01:10.210Z,85.60
2019-05-09T12:03:31.658Z,86.00
2019-05-09T12:05:53.006Z,86.20
2019-05-09T12:08:14.403Z,86.60
2019-05-09T12:10:38.213Z,86.90
2019-05-09T12:13:19.657Z,87.00
2019-05-09T12:15:41.268Z,87.50
2019-05-09T12:18:08.481Z,87.90
2019-05-09T12:20:48.414Z,87.90
2019-05-09T12:23:10.372Z,88.00
2019-05-09T12:25:31.841Z,87.90
2019-05-09T12:27:53.513Z,88.50
2019-05-09T12:30:15.299Z,88.50
2019-05-09T12:32:38.522Z,88.70
2019-05-09T12:35:00.246Z,88.40
2019-05-09T12:37:21.837Z,88.10
2019-05-09T12:39:43.354Z,88.10
2019-05-09T12:42:04.971Z,88.30
2019-05-09T12:44:28.710Z,88.50
2019-05-09T12:46:49.718Z,88.90
2019-05-09T12:49:11.100Z,88.30
2019-05-09T12:51:32.415Z,88.50
2019-05-09T12:53:54.396Z,88.30
2019-05-09T12:56:18.491Z,88.80
2019-05-09T12:58:38.996Z,89.00
2019-05-09T13:01:00.277Z,88.90
2019-05-09T13:03:21.566Z,89.00
2019-05-09T13:05:42.974Z,89.50
2019-05-09T13:08:04.299Z,89.50
2019-05-09T13:10:25.581Z,89.60
2019-05-09T13:12:48.401Z,89.40
2019-05-09T13:15:10.145Z,89.10
2019-05-09T13:17:39.413Z,88.80
2019-05-09T13:20:01.198Z,87.80
2019-05-09T13:22:22.914Z,87.30
2019-05-09T13:24:44.559Z,86.20
2019-05-09T13:27:07.891Z,86.50
2019-05-09T13:29:29.694Z,86.50
2019-05-09T13:31:51.394Z,86.50
2019-05-09T13:34:12.981Z,86.30
2019-05-09T13:36:34.590Z,86.00
2019-05-09T13:39:03.894Z,85.90
2019-05-09T13:41:19.133Z,86.10
2019-05-09T13:43:47.455Z,85.00
2019-05-09T13:46:04.149Z,85.60
2019-05-09T13:48:46.790Z,84.50
2019-05-09T13:50:48.769Z,84.10
2019-05-09T13:53:10.293Z,83.00
2019-05-09T13:55:31.897Z,82.10
2019-05-09T13:57:53.196Z,82.20
2019-05-09T14:00:14.679Z,81.70
2019-05-09T14:02:38.451Z,80.90
2019-05-09T14:04:59.650Z,81.40
2019-05-09T14:07:21.227Z,81.10
2019-05-09T14:09:42.653Z,81.00
2019-05-09T14:12:09.106Z,81.50
2019-05-09T14:14:29.133Z,81.90
2019-05-09T14:16:50.753Z,81.60
2019-05-09T14:19:30.217Z,81.80
2019-05-09T14:21:58.291Z,82.50
2019-05-09T14:24:19.489Z,82.10
2019-05-09T14:26:41.185Z,82.60
2019-05-09T14:29:02.688Z,82.20
2019-05-09T14:31:24.227Z,81.90
2019-05-09T14:33:47.647Z,81.80
2019-05-09T14:36:08.972Z,81.90
2019-05-09T14:38:50.122Z,81.40
2019-05-09T14:41:11.421Z,80.80
2019-05-09T14:43:33.085Z,80.00
2019-05-09T14:45:54.328Z,80.10
2019-05-09T14:48:15.803Z,80.00
2019-05-09T14:50:38.277Z,79.50
2019-05-09T14:53:00.031Z,79.50
2019-05-09T14:55:21.521Z,79.00
2019-05-09T14:57:43.190Z,79.90
2019-05-09T15:00:07.749Z,79.10
2019-05-09T15:02:29.160Z,79.20
2019-05-09T15:04:50.558Z,79.70
2019-05-09T15:07:11.866Z,79.40
2019-05-09T15:09:33.989Z,79.80
2019-05-09T15:11:58.253Z,80.30
2019-05-09T15:14:18.746Z,80.50
2019-05-09T15:16:40.253Z,80.00
2019-05-09T15:19:01.575Z,79.80
2019-05-09T15:21:23.321Z,80.00
2019-05-09T15:23:44.808Z,79.80
2019-05-09T15:26:07.727Z,80.30
2019-05-09T15:28:29.969Z,79.60
2019-05-09T15:30:51.465Z,78.90
2019-05-09T15:33:13.195Z,78.90
2019-05-09T15:35:34.741Z,78.90
2019-05-09T15:37:59.035Z,78.30
2019-05-09T15:40:20.035Z,77.60
2019-05-09T15:42:41.642Z,77.90
2019-05-09T15:45:07.598Z,77.80
2019-05-09T15:47:37.653Z,77.70
2019-05-09T15:50:14.624Z,77.70
2019-05-09T15:52:22.833Z,77.60
2019-05-09T15:54:44.329Z,77.80
2019-05-09T15:57:08.463Z,77.20
2019-05-09T15:59:29.473Z,77.10
2019-05-09T16:01:51.088Z,77.20
2019-05-09T16:04:12.681Z,77.80
2019-05-09T16:06:34.010Z,78.30
2019-05-09T16:08:58.375Z,78.10
2019-05-09T16:11:18.705Z,78.20
2019-05-09T16:13:47.955Z,78.30
2019-05-09T16:16:09.787Z,79.00
2019-05-09T16:18:31.400Z,79.60
2019-05-09T16:20:53.078Z,80.10
2019-05-09T16:23:14.662Z,80.30
2019-05-09T16:25:38.562Z,79.30
2019-05-09T16:27:59.612Z,79.90
2019-05-09T16:30:20.990Z,80.60
2019-05-09T16:32:42.837Z,80.60
2019-05-09T16:35:04.468Z,80.30
2019-05-09T16:37:28.217Z,80.10
2019-05-09T16:39:49.243Z,79.10
2019-05-09T16:42:10.761Z,79.10
2019-05-09T16:44:32.346Z,79.40
2019-05-09T16:46:54.476Z,78.20
2019-05-09T16:49:17.553Z,79.80
2019-05-09T16:51:40.501Z,79.30
2019-05-09T16:54:02.161Z,80.00
2019-05-09T16:56:23.708Z,79.80
2019-05-09T16:58:45.307Z,79.80
2019-05-09T17:01:08.285Z,79.50
2019-05-09T17:03:29.807Z,79.80
2019-05-09T17:05:51.340Z,79.70
2019-05-09T17:08:12.782Z,80.20
2019-05-09T17:10:34.292Z,80.10
2019-05-09T17:12:58.057Z,80.40
2019-05-09T17:15:18.967Z,80.90
2019-05-09T17:17:40.499Z,81.80
2019-05-09T17:20:03.442Z,82.60
2019-05-09T17:22:43.789Z,83.30
2019-05-09T17:25:05.440Z,83.90
2019-05-09T17:27:28.083Z,84.40
2019-05-09T17:29:49.589Z,84.40
2019-05-09T17:32:11.165Z,84.60
2019-05-09T17:34:32.819Z,84.60
2019-05-09T17:36:54.336Z,84.70
2019-05-09T17:39:18.423Z,84.70
2019-05-09T17:41:39.256Z,84.10
2019-05-09T17:44:00.808Z,84.10
2019-05-09T17:46:24.451Z,84.20
2019-05-09T17:48:47.893Z,84.30
2019-05-09T17:51:09.794Z,84.50
2019-05-09T17:53:33.802Z,84.60
2019-05-09T17:55:54.854Z,84.50
2019-05-09T17:58:27.194Z,84.80
2019-05-09T18:00:39.703Z,85.20
2019-05-09T18:03:02.066Z,85.50
2019-05-09T18:05:23.742Z,85.50
2019-05-09T18:07:45.130Z,85.60
2019-05-09T18:10:07.738Z,85.70
2019-05-09T18:12:29.681Z,86.10
2019-05-09T18:14:51.087Z,86.40
2019-05-09T18:17:12.481Z,86.30
2019-05-09T18:19:34.130Z,86.70
2019-05-09T18:21:57.798Z,86.40
2019-05-09T18:24:19.064Z,85.80
2019-05-09T18:26:41.015Z,85.40
2019-05-09T18:29:02.486Z,85.60
2019-05-09T18:31:27.823Z,85.90
2019-05-09T18:33:50.824Z,86.20
2019-05-09T18:36:12.424Z,86.10
2019-05-09T18:38:34.055Z,86.30
2019-05-09T18:40:57.805Z,86.20
2019-05-09T18:43:18.698Z,86.10
2019-05-09T18:45:40.326Z,86.50
2019-05-09T18:48:01.653Z,86.50
2019-05-09T18:50:22.955Z,87.10
2019-05-09T18:52:44.455Z,87.40
2019-05-09T18:55:07.353Z,87.60
2019-05-09T18:57:29.034Z,87.00
2019-05-09T18:59:50.512Z,86.00
2019-05-09T19:02:12.114Z,85.90
2019-05-09T19:04:33.529Z,86.20
2019-05-09T19:06:54.928Z,86.60
2019-05-09T19:09:16.501Z,86.40
2019-05-09T19:11:38.228Z,85.30
2019-05-09T19:14:00.381Z,85.10
2019-05-09T19:16:32.440Z,84.30
2019-05-09T19:18:58.825Z,83.80
2019-05-09T19:21:22.255Z,83.90
2019-05-09T19:23:43.865Z,84.50
2019-05-09T19:26:05.680Z,84.90
2019-05-09T19:28:27.082Z,85.20
2019-05-09T19:30:48.557Z,85.00
2019-05-09T19:33:10.080Z,85.70
2019-05-09T19:35:32.020Z,85.80
2019-05-09T19:37:53.431Z,86.20
2019-05-09T19:40:20.005Z,86.60
2019-05-09T19:42:38.742Z,85.70
2019-05-09T19:45:00.137Z,85.40
2019-05-09T19:47:21.661Z,84.70
2019-05-09T19:49:42.941Z,85.10
2019-05-09T19:52:04.564Z,84.60
2019-05-09T19:54:26.074Z,85.00
2019-05-09T19:56:47.463Z,85.30
2019-05-09T19:59:08.802Z,85.50
2019-05-09T20:01:30.523Z,85.70
2019-05-09T20:03:51.997Z,85.70
2019-05-09T20:06:16.509Z,86.10
2019-05-09T20:08:37.465Z,87.20
2019-05-09T20:11:17.577Z,88.20
2019-05-09T20:13:59.086Z,87.70
2019-05-09T20:16:20.607Z,88.10
2019-05-09T20:18:42.114Z,88.20
2019-05-09T20:21:03.826Z,88.50
2019-05-09T20:23:25.425Z,88.50
2019-05-09T20:25:47.494Z,88.10
2019-05-09T20:28:09.310Z,88.20
2019-05-09T20:30:31.063Z,88.50
2019-05-09T20:32:58.637Z,89.00
2019-05-09T20:35:20.273Z,88.90
2019-05-09T20:37:41.655Z,88.70
2019-05-09T20:40:05.560Z,88.80
2019-05-09T20:42:27.105Z,88.80
2019-05-09T20:44:48.526Z,88.20
2019-05-09T20:47:10.312Z,87.90
2019-05-09T20:49:31.730Z,87.80
2019-05-09T20:51:53.320Z,88.20
2019-05-09T20:54:20.916Z,88.20
2019-05-09T20:56:38.306Z,88.30
2019-05-09T20:58:59.723Z,88.30
2019-05-09T21:01:21.358Z,88.20
2019-05-09T21:03:58.569Z,88.10
2019-05-09T21:06:06.186Z,87.50
2019-05-09T21:08:27.855Z,86.70
2019-05-09T21:10:49.381Z,87.10
2019-05-09T21:13:10.803Z,87.10
2019-05-09T21:15:52.165Z,87.20
2019-05-09T21:18:13.485Z,86.90
2019-05-09T21:20:34.955Z,87.10
2019-05-09T21:22:56.638Z,87.20
2019-05-09T21:25:18.479Z,87.10
2019-05-09T21:27:40.081Z,87.40
2019-05-09T21:30:03.798Z,87.50
2019-05-09T21:32:25.285Z,88.10
2019-05-09T21:34:46.694Z,88.10
2019-05-09T21:37:08.318Z,87.50
2019-05-09T21:39:30.205Z,87.20
2019-05-09T21:41:51.696Z,87.30
2019-05-09T21:44:13.253Z,87.60
2019-05-09T21:46:34.733Z,87.90
2019-05-09T21:48:56.135Z,87.30
2019-05-09T21:51:17.667Z,87.20
2019-05-09T21:53:41.719Z,86.00
2019-05-09T21:56:03.527Z,86.70
2019-05-09T21:58:25.246Z,86.90
2019-05-09T22:00:49.857Z,86.80
2019-05-09T22:03:11.465Z,86.60
2019-05-09T22:05:34.666Z,86.90
2019-05-09T22:08:01.908Z,86.90
2019-05-09T22:10:23.940Z,87.00
2019-05-09T22:12:45.593Z,87.10
2019-05-09T22:15:10.829Z,87.30
2019-05-09T22:17:37.035Z,87.40
2019-05-09T22:19:59.089Z,87.20
2019-05-09T22:22:20.664Z,87.20
2019-05-09T22:24:42.109Z,87.80
2019-05-09T22:27:04.615Z,87.90
2019-05-09T22:29:26.574Z,88.10
2019-05-09T22:31:48.188Z,88.30
2019-05-09T22:34:10.178Z,88.60
2019-05-09T22:36:31.506Z,88.90
2019-05-09T22:38:52.991Z,89.30
2019-05-09T22:41:14.790Z,89.50
2019-05-09T22:43:36.096Z,89.70
2019-05-09T22:45:58.883Z,89.90
2019-05-09T22:48:40.047Z,90.00
2019-05-09T22:51:01.655Z,90.00
2019-05-09T22:53:23.531Z,90.00
2019-05-09T22:55:45.581Z,90.10
2019-05-09T22:58:08.022Z,90.60
2019-05-09T23:00:29.379Z,90.30
2019-05-09T23:02:51.024Z,90.40
2019-05-09T23:05:12.615Z,90.50
2019-05-09T23:07:34.335Z,90.40
2019-05-09T23:09:56.395Z,90.70
2019-05-09T23:12:18.812Z,90.50
2019-05-09T23:14:40.404Z,90.80
2019-05-09T23:17:02.384Z,90.40
2019-05-09T23:19:43.634Z,90.50
2019-05-09T23:22:05.361Z,90.60
2019-05-09T23:24:29.069Z,90.60
2019-05-09T23:26:50.560Z,90.60
2019-05-09T23:29:12.514Z,91.00
2019-05-09T23:31:50.962Z,90.60
2019-05-09T23:34:13.197Z,90.60
2019-05-09T23:36:34.683Z,91.00
2019-05-09T23:39:14.552Z,90.80
2019-05-09T23:41:35.922Z,90.80
2019-05-09T23:43:58.104Z,90.80
2019-05-09T23:46:20.463Z,90.90
2019-05-09T23:48:41.860Z,90.90
2019-05-09T23:51:03.694Z,90.90
2019-05-09T23:53:37.988Z,91.10
2019-05-09T23:56:17.846Z,91.00
2019-05-09T23:58:58.042Z,91.10
